sensor_id;sensor_type;location;lat;lon;timestamp;P1;durP1;ratioP1;P2;durP2;ratioP2
56141;SDS011;42018;48.588;10.836;2022-10-16T00:01:12;3.55;;;1.70;;
56141;SDS011;42018;48.588;10.836;2022-10-16T00:04:00;3.00;;;1.55;;
56141;SDS011;42018;48.588;10.836;2022-10-16T00:06:46;3.17;;;1.75;;
56141;SDS011;42018;48.588;10.836;2022-10-16T00:09:31;4.32;;;1.90;;
56141;SDS011;42018;48.588;10.836;2022-10-16T00:12:16;3.78;;;1.67;;
56141;SDS011;42018;48.588;10.836;2022-10-16T00:15:02;4.32;;;1.65;;
56141;SDS011;42018;48.588;10.836;2022-10-16T00:17:47;3.75;;;1.77;;
56141;SDS011;42018;48.588;10.836;2022-10-16T00:20:33;4.85;;;1.67;;
56141;SDS011;42018;48.588;10.836;2022-10-16T00:23:19;3.20;;;1.65;;
56141;SDS011;42018;48.588;10.836;2022-10-16T00:26:06;3.60;;;1.60;;
56141;SDS011;42018;48.588;10.836;2022-10-16T00:28:54;5.03;;;1.80;;
56141;SDS011;42018;48.588;10.836;2022-10-16T00:31:40;5.55;;;2.00;;
56141;SDS011;42018;48.588;10.836;2022-10-16T00:34:25;4.93;;;1.70;;
56141;SDS011;42018;48.588;10.836;2022-10-16T00:37:11;4.13;;;1.67;;
56141;SDS011;42018;48.588;10.836;2022-10-16T00:39:57;4.60;;;1.70;;
56141;SDS011;42018;48.588;10.836;2022-10-16T00:42:42;4.32;;;1.73;;
56141;SDS011;42018;48.588;10.836;2022-10-16T00:45:28;5.65;;;1.83;;
56141;SDS011;42018;48.588;10.836;2022-10-16T00:48:13;2.95;;;1.52;;
56141;SDS011;42018;48.588;10.836;2022-10-16T00:50:59;5.88;;;1.98;;
56141;SDS011;42018;48.588;10.836;2022-10-16T00:53:45;4.90;;;1.90;;
56141;SDS011;42018;48.588;10.836;2022-10-16T00:56:31;3.55;;;1.50;;
56141;SDS011;42018;48.588;10.836;2022-10-16T01:02:13;3.80;;;2.08;;
56141;SDS011;42018;48.588;10.836;2022-10-16T01:05:00;4.03;;;1.50;;
56141;SDS011;42018;48.588;10.836;2022-10-16T01:11:27;3.00;;;1.55;;
56141;SDS011;42018;48.588;10.836;2022-10-16T01:14:39;4.13;;;1.60;;
56141;SDS011;42018;48.588;10.836;2022-10-16T01:17:45;3.78;;;1.88;;
56141;SDS011;42018;48.588;10.836;2022-10-16T01:20:37;2.97;;;1.77;;
56141;SDS011;42018;48.588;10.836;2022-10-16T01:23:51;4.13;;;1.73;;
56141;SDS011;42018;48.588;10.836;2022-10-16T01:30:02;3.70;;;1.75;;
56141;SDS011;42018;48.588;10.836;2022-10-16T01:32:55;4.07;;;1.80;;
56141;SDS011;42018;48.588;10.836;2022-10-16T01:35:46;4.43;;;2.00;;
56141;SDS011;42018;48.588;10.836;2022-10-16T01:38:38;3.50;;;1.70;;
56141;SDS011;42018;48.588;10.836;2022-10-16T01:41:26;5.03;;;1.70;;
56141;SDS011;42018;48.588;10.836;2022-10-16T01:44:21;4.38;;;1.70;;
56141;SDS011;42018;48.588;10.836;2022-10-16T01:47:11;3.65;;;1.63;;
56141;SDS011;42018;48.588;10.836;2022-10-16T01:49:58;5.80;;;1.88;;
56141;SDS011;42018;48.588;10.836;2022-10-16T01:55:32;4.78;;;1.83;;
56141;SDS011;42018;48.588;10.836;2022-10-16T01:58:21;4.07;;;1.80;;
56141;SDS011;42018;48.588;10.836;2022-10-16T02:01:08;3.40;;;1.73;;
56141;SDS011;42018;48.588;10.836;2022-10-16T02:04:00;3.25;;;1.58;;
56141;SDS011;42018;48.588;10.836;2022-10-16T02:06:52;4.05;;;1.90;;
56141;SDS011;42018;48.588;10.836;2022-10-16T02:09:38;4.60;;;2.08;;
56141;SDS011;42018;48.588;10.836;2022-10-16T02:12:29;3.72;;;2.10;;
56141;SDS011;42018;48.588;10.836;2022-10-16T02:15:17;3.88;;;1.90;;
56141;SDS011;42018;48.588;10.836;2022-10-16T02:18:03;3.83;;;1.70;;
56141;SDS011;42018;48.588;10.836;2022-10-16T02:20:51;4.00;;;2.00;;
56141;SDS011;42018;48.588;10.836;2022-10-16T02:30:03;3.13;;;1.83;;
56141;SDS011;42018;48.588;10.836;2022-10-16T02:32:54;5.28;;;2.10;;
56141;SDS011;42018;48.588;10.836;2022-10-16T02:35:41;3.33;;;1.90;;
56141;SDS011;42018;48.588;10.836;2022-10-16T02:38:30;3.70;;;1.80;;
56141;SDS011;42018;48.588;10.836;2022-10-16T02:41:15;3.45;;;1.88;;
56141;SDS011;42018;48.588;10.836;2022-10-16T02:44:01;4.80;;;1.80;;
56141;SDS011;42018;48.588;10.836;2022-10-16T02:46:46;4.00;;;1.77;;
56141;SDS011;42018;48.588;10.836;2022-10-16T02:49:31;3.25;;;1.70;;
56141;SDS011;42018;48.588;10.836;2022-10-16T02:52:17;3.90;;;1.90;;
56141;SDS011;42018;48.588;10.836;2022-10-16T02:55:02;3.35;;;1.50;;
56141;SDS011;42018;48.588;10.836;2022-10-16T02:57:48;3.58;;;1.55;;
56141;SDS011;42018;48.588;10.836;2022-10-16T03:00:34;3.30;;;1.60;;
56141;SDS011;42018;48.588;10.836;2022-10-16T03:03:19;4.03;;;1.65;;
56141;SDS011;42018;48.588;10.836;2022-10-16T03:06:04;2.63;;;1.42;;
56141;SDS011;42018;48.588;10.836;2022-10-16T03:08:50;3.45;;;1.52;;
56141;SDS011;42018;48.588;10.836;2022-10-16T03:11:36;3.75;;;1.60;;
56141;SDS011;42018;48.588;10.836;2022-10-16T03:14:21;3.40;;;1.60;;
56141;SDS011;42018;48.588;10.836;2022-10-16T03:17:06;3.42;;;1.60;;
56141;SDS011;42018;48.588;10.836;2022-10-16T03:19:52;3.25;;;1.80;;
56141;SDS011;42018;48.588;10.836;2022-10-16T03:22:37;3.22;;;1.50;;
56141;SDS011;42018;48.588;10.836;2022-10-16T03:25:22;3.75;;;1.77;;
56141;SDS011;42018;48.588;10.836;2022-10-16T03:28:08;4.43;;;1.60;;
56141;SDS011;42018;48.588;10.836;2022-10-16T03:30:54;3.08;;;1.60;;
56141;SDS011;42018;48.588;10.836;2022-10-16T03:33:39;3.90;;;1.70;;
56141;SDS011;42018;48.588;10.836;2022-10-16T03:36:24;3.97;;;1.60;;
56141;SDS011;42018;48.588;10.836;2022-10-16T03:39:10;5.57;;;1.85;;
56141;SDS011;42018;48.588;10.836;2022-10-16T03:41:55;3.60;;;1.45;;
56141;SDS011;42018;48.588;10.836;2022-10-16T03:44:41;3.80;;;1.70;;
56141;SDS011;42018;48.588;10.836;2022-10-16T03:47:26;2.80;;;1.40;;
56141;SDS011;42018;48.588;10.836;2022-10-16T03:50:11;4.35;;;1.70;;
56141;SDS011;42018;48.588;10.836;2022-10-16T03:52:57;3.53;;;1.70;;
56141;SDS011;42018;48.588;10.836;2022-10-16T03:55:42;4.10;;;1.90;;
56141;SDS011;42018;48.588;10.836;2022-10-16T03:58:28;3.45;;;1.60;;
56141;SDS011;42018;48.588;10.836;2022-10-16T04:01:14;4.00;;;1.50;;
56141;SDS011;42018;48.588;10.836;2022-10-16T04:04:00;2.92;;;1.60;;
56141;SDS011;42018;48.588;10.836;2022-10-16T04:06:45;3.70;;;1.55;;
56141;SDS011;42018;48.588;10.836;2022-10-16T04:09:31;3.65;;;1.60;;
56141;SDS011;42018;48.588;10.836;2022-10-16T04:12:16;5.13;;;1.42;;
56141;SDS011;42018;48.588;10.836;2022-10-16T04:15:02;3.65;;;1.58;;
56141;SDS011;42018;48.588;10.836;2022-10-16T04:17:47;2.72;;;1.55;;
56141;SDS011;42018;48.588;10.836;2022-10-16T04:20:33;3.10;;;1.50;;
56141;SDS011;42018;48.588;10.836;2022-10-16T04:23:19;2.65;;;1.60;;
56141;SDS011;42018;48.588;10.836;2022-10-16T04:26:04;3.63;;;1.40;;
56141;SDS011;42018;48.588;10.836;2022-10-16T04:28:50;4.43;;;1.70;;
56141;SDS011;42018;48.588;10.836;2022-10-16T04:31:35;3.38;;;1.65;;
56141;SDS011;42018;48.588;10.836;2022-10-16T04:34:21;4.72;;;1.65;;
56141;SDS011;42018;48.588;10.836;2022-10-16T04:37:06;3.65;;;1.60;;
56141;SDS011;42018;48.588;10.836;2022-10-16T04:39:52;3.65;;;1.60;;
56141;SDS011;42018;48.588;10.836;2022-10-16T04:42:38;3.38;;;1.65;;
56141;SDS011;42018;48.588;10.836;2022-10-16T04:45:23;3.45;;;1.77;;
56141;SDS011;42018;48.588;10.836;2022-10-16T04:48:09;3.58;;;1.70;;
56141;SDS011;42018;48.588;10.836;2022-10-16T04:50:55;3.25;;;1.85;;
56141;SDS011;42018;48.588;10.836;2022-10-16T04:53:40;3.50;;;1.50;;
56141;SDS011;42018;48.588;10.836;2022-10-16T04:56:25;3.13;;;1.60;;
56141;SDS011;42018;48.588;10.836;2022-10-16T04:59:11;3.33;;;1.50;;
56141;SDS011;42018;48.588;10.836;2022-10-16T05:01:56;3.92;;;1.50;;
56141;SDS011;42018;48.588;10.836;2022-10-16T05:04:42;3.38;;;1.60;;
56141;SDS011;42018;48.588;10.836;2022-10-16T05:07:27;3.15;;;1.70;;
56141;SDS011;42018;48.588;10.836;2022-10-16T05:10:12;2.75;;;1.40;;
56141;SDS011;42018;48.588;10.836;2022-10-16T05:12:58;2.80;;;1.48;;
56141;SDS011;42018;48.588;10.836;2022-10-16T05:15:46;4.15;;;1.60;;
56141;SDS011;42018;48.588;10.836;2022-10-16T05:18:33;2.88;;;1.40;;
56141;SDS011;42018;48.588;10.836;2022-10-16T05:21:18;2.70;;;1.40;;
56141;SDS011;42018;48.588;10.836;2022-10-16T05:24:04;3.08;;;1.48;;
56141;SDS011;42018;48.588;10.836;2022-10-16T05:26:49;2.70;;;1.38;;
56141;SDS011;42018;48.588;10.836;2022-10-16T05:29:35;3.58;;;1.60;;
56141;SDS011;42018;48.588;10.836;2022-10-16T05:32:21;3.03;;;1.50;;
56141;SDS011;42018;48.588;10.836;2022-10-16T05:35:06;3.60;;;1.55;;
56141;SDS011;42018;48.588;10.836;2022-10-16T05:37:52;2.80;;;1.45;;
56141;SDS011;42018;48.588;10.836;2022-10-16T05:40:37;2.90;;;1.50;;
56141;SDS011;42018;48.588;10.836;2022-10-16T05:43:23;3.35;;;1.40;;
56141;SDS011;42018;48.588;10.836;2022-10-16T05:46:08;3.05;;;1.50;;
56141;SDS011;42018;48.588;10.836;2022-10-16T05:48:54;3.60;;;1.67;;
56141;SDS011;42018;48.588;10.836;2022-10-16T05:51:39;3.75;;;1.50;;
56141;SDS011;42018;48.588;10.836;2022-10-16T05:54:24;2.97;;;1.55;;
56141;SDS011;42018;48.588;10.836;2022-10-16T05:57:10;3.08;;;1.30;;
56141;SDS011;42018;48.588;10.836;2022-10-16T05:59:55;3.45;;;1.58;;
56141;SDS011;42018;48.588;10.836;2022-10-16T06:02:41;3.53;;;1.58;;
56141;SDS011;42018;48.588;10.836;2022-10-16T06:05:26;3.30;;;1.50;;
56141;SDS011;42018;48.588;10.836;2022-10-16T06:08:11;2.63;;;1.40;;
56141;SDS011;42018;48.588;10.836;2022-10-16T06:11:00;4.07;;;1.88;;
56141;SDS011;42018;48.588;10.836;2022-10-16T06:13:50;3.00;;;1.50;;
56141;SDS011;42018;48.588;10.836;2022-10-16T06:16:37;3.95;;;1.55;;
56141;SDS011;42018;48.588;10.836;2022-10-16T06:19:22;3.60;;;1.73;;
56141;SDS011;42018;48.588;10.836;2022-10-16T06:22:08;5.40;;;1.90;;
56141;SDS011;42018;48.588;10.836;2022-10-16T06:24:53;2.95;;;1.60;;
56141;SDS011;42018;48.588;10.836;2022-10-16T06:27:39;4.63;;;1.98;;
56141;SDS011;42018;48.588;10.836;2022-10-16T06:30:25;3.30;;;1.85;;
56141;SDS011;42018;48.588;10.836;2022-10-16T06:33:11;3.08;;;1.65;;
56141;SDS011;42018;48.588;10.836;2022-10-16T06:36:01;3.63;;;1.60;;
56141;SDS011;42018;48.588;10.836;2022-10-16T06:38:50;3.95;;;1.70;;
56141;SDS011;42018;48.588;10.836;2022-10-16T06:41:36;3.15;;;1.60;;
56141;SDS011;42018;48.588;10.836;2022-10-16T06:44:21;2.95;;;1.50;;
56141;SDS011;42018;48.588;10.836;2022-10-16T06:47:07;3.80;;;1.80;;
56141;SDS011;42018;48.588;10.836;2022-10-16T06:49:52;3.72;;;1.50;;
56141;SDS011;42018;48.588;10.836;2022-10-16T06:52:37;4.30;;;1.60;;
56141;SDS011;42018;48.588;10.836;2022-10-16T06:55:23;3.42;;;1.50;;
56141;SDS011;42018;48.588;10.836;2022-10-16T06:58:09;3.00;;;1.42;;
56141;SDS011;42018;48.588;10.836;2022-10-16T07:00:55;3.13;;;1.50;;
56141;SDS011;42018;48.588;10.836;2022-10-16T07:03:42;3.55;;;1.60;;
56141;SDS011;42018;48.588;10.836;2022-10-16T07:06:30;4.15;;;1.63;;
56141;SDS011;42018;48.588;10.836;2022-10-16T07:09:17;4.45;;;1.60;;
56141;SDS011;42018;48.588;10.836;2022-10-16T07:12:02;3.20;;;1.65;;
56141;SDS011;42018;48.588;10.836;2022-10-16T07:14:48;3.22;;;1.60;;
56141;SDS011;42018;48.588;10.836;2022-10-16T07:17:37;5.18;;;2.20;;
56141;SDS011;42018;48.588;10.836;2022-10-16T07:20:22;3.35;;;1.67;;
56141;SDS011;42018;48.588;10.836;2022-10-16T07:23:07;3.33;;;1.70;;
56141;SDS011;42018;48.588;10.836;2022-10-16T07:25:53;3.50;;;1.50;;
56141;SDS011;42018;48.588;10.836;2022-10-16T07:28:40;3.55;;;1.50;;
56141;SDS011;42018;48.588;10.836;2022-10-16T07:31:27;5.00;;;1.60;;
56141;SDS011;42018;48.588;10.836;2022-10-16T07:34:14;3.78;;;1.80;;
56141;SDS011;42018;48.588;10.836;2022-10-16T07:37:00;4.63;;;1.70;;
56141;SDS011;42018;48.588;10.836;2022-10-16T07:39:46;3.63;;;1.50;;
56141;SDS011;42018;48.588;10.836;2022-10-16T07:42:31;2.95;;;1.67;;
56141;SDS011;42018;48.588;10.836;2022-10-16T07:45:17;3.50;;;1.60;;
56141;SDS011;42018;48.588;10.836;2022-10-16T07:48:02;3.40;;;1.70;;
56141;SDS011;42018;48.588;10.836;2022-10-16T07:50:48;4.28;;;1.55;;
56141;SDS011;42018;48.588;10.836;2022-10-16T07:53:33;4.47;;;1.65;;
56141;SDS011;42018;48.588;10.836;2022-10-16T07:56:19;3.72;;;1.60;;
56141;SDS011;42018;48.588;10.836;2022-10-16T07:59:05;4.93;;;1.63;;
56141;SDS011;42018;48.588;10.836;2022-10-16T08:01:50;3.30;;;1.48;;
56141;SDS011;42018;48.588;10.836;2022-10-16T08:04:35;3.67;;;1.48;;
56141;SDS011;42018;48.588;10.836;2022-10-16T08:07:21;4.38;;;1.40;;
56141;SDS011;42018;48.588;10.836;2022-10-16T08:10:06;3.78;;;1.40;;
56141;SDS011;42018;48.588;10.836;2022-10-16T08:13:00;4.25;;;1.55;;
56141;SDS011;42018;48.588;10.836;2022-10-16T08:15:46;7.57;;;1.50;;
56141;SDS011;42018;48.588;10.836;2022-10-16T08:18:32;3.67;;;1.40;;
56141;SDS011;42018;48.588;10.836;2022-10-16T08:21:18;4.32;;;1.30;;
56141;SDS011;42018;48.588;10.836;2022-10-16T08:24:05;2.28;;;1.15;;
56141;SDS011;42018;48.588;10.836;2022-10-16T08:26:52;3.22;;;1.20;;
56141;SDS011;42018;48.588;10.836;2022-10-16T08:29:39;3.10;;;1.10;;
56141;SDS011;42018;48.588;10.836;2022-10-16T08:32:24;2.20;;;1.10;;
56141;SDS011;42018;48.588;10.836;2022-10-16T08:35:10;3.75;;;1.25;;
56141;SDS011;42018;48.588;10.836;2022-10-16T08:37:57;3.08;;;1.10;;
56141;SDS011;42018;48.588;10.836;2022-10-16T08:40:42;2.72;;;1.10;;
56141;SDS011;42018;48.588;10.836;2022-10-16T08:49:39;3.20;;;1.33;;
56141;SDS011;42018;48.588;10.836;2022-10-16T08:52:29;3.72;;;1.30;;
56141;SDS011;42018;48.588;10.836;2022-10-16T08:55:30;3.22;;;1.20;;
56141;SDS011;42018;48.588;10.836;2022-10-16T08:58:20;3.75;;;1.15;;
56141;SDS011;42018;48.588;10.836;2022-10-16T09:01:16;4.88;;;1.30;;
56141;SDS011;42018;48.588;10.836;2022-10-16T09:07:41;5.15;;;1.20;;
56141;SDS011;42018;48.588;10.836;2022-10-16T09:16:36;2.50;;;1.10;;
56141;SDS011;42018;48.588;10.836;2022-10-16T09:19:33;3.03;;;1.30;;
56141;SDS011;42018;48.588;10.836;2022-10-16T09:22:27;2.08;;;1.10;;
56141;SDS011;42018;48.588;10.836;2022-10-16T09:25:15;3.50;;;1.00;;
56141;SDS011;42018;48.588;10.836;2022-10-16T09:28:02;1.80;;;1.02;;
56141;SDS011;42018;48.588;10.836;2022-10-16T09:30:48;1.95;;;1.00;;
56141;SDS011;42018;48.588;10.836;2022-10-16T09:33:37;2.60;;;1.10;;
56141;SDS011;42018;48.588;10.836;2022-10-16T09:36:25;2.20;;;1.08;;
56141;SDS011;42018;48.588;10.836;2022-10-16T09:39:13;2.25;;;1.20;;
56141;SDS011;42018;48.588;10.836;2022-10-16T09:41:59;3.97;;;1.10;;
56141;SDS011;42018;48.588;10.836;2022-10-16T09:44:49;2.90;;;1.00;;
56141;SDS011;42018;48.588;10.836;2022-10-16T09:47:37;3.22;;;1.50;;
56141;SDS011;42018;48.588;10.836;2022-10-16T09:50:28;2.10;;;1.05;;
56141;SDS011;42018;48.588;10.836;2022-10-16T09:53:14;2.35;;;1.10;;
56141;SDS011;42018;48.588;10.836;2022-10-16T09:55:59;2.72;;;1.23;;
56141;SDS011;42018;48.588;10.836;2022-10-16T09:58:52;5.20;;;1.10;;
56141;SDS011;42018;48.588;10.836;2022-10-16T10:01:47;1.80;;;1.08;;
56141;SDS011;42018;48.588;10.836;2022-10-16T10:04:40;2.00;;;1.00;;
56141;SDS011;42018;48.588;10.836;2022-10-16T10:07:32;1.95;;;1.00;;
56141;SDS011;42018;48.588;10.836;2022-10-16T10:10:21;2.60;;;1.05;;
56141;SDS011;42018;48.588;10.836;2022-10-16T10:13:19;3.73;;;1.10;;
56141;SDS011;42018;48.588;10.836;2022-10-16T10:16:05;2.33;;;1.10;;
56141;SDS011;42018;48.588;10.836;2022-10-16T10:18:57;2.33;;;1.10;;
56141;SDS011;42018;48.588;10.836;2022-10-16T10:21:44;2.47;;;1.00;;
56141;SDS011;42018;48.588;10.836;2022-10-16T10:24:30;2.10;;;1.10;;
56141;SDS011;42018;48.588;10.836;2022-10-16T10:27:16;2.60;;;0.90;;
56141;SDS011;42018;48.588;10.836;2022-10-16T10:36:24;3.13;;;1.10;;
56141;SDS011;42018;48.588;10.836;2022-10-16T10:39:19;3.83;;;1.13;;
56141;SDS011;42018;48.588;10.836;2022-10-16T10:51:42;3.70;;;1.00;;
56141;SDS011;42018;48.588;10.836;2022-10-16T11:07:47;1.60;;;0.70;;
56141;SDS011;42018;48.588;10.836;2022-10-16T11:23:20;2.08;;;0.90;;
56141;SDS011;42018;48.588;10.836;2022-10-16T11:26:15;3.00;;;1.00;;
56141;SDS011;42018;48.588;10.836;2022-10-16T11:29:05;2.63;;;0.90;;
56141;SDS011;42018;48.588;10.836;2022-10-16T11:32:04;1.83;;;0.85;;
56141;SDS011;42018;48.588;10.836;2022-10-16T11:35:19;3.33;;;1.20;;
56141;SDS011;42018;48.588;10.836;2022-10-16T11:38:12;3.15;;;0.80;;
56141;SDS011;42018;48.588;10.836;2022-10-16T11:41:15;2.22;;;1.00;;
56141;SDS011;42018;48.588;10.836;2022-10-16T11:47:11;2.33;;;0.80;;
56141;SDS011;42018;48.588;10.836;2022-10-16T11:55:56;2.17;;;0.85;;
56141;SDS011;42018;48.588;10.836;2022-10-16T11:58:46;1.65;;;0.93;;
56141;SDS011;42018;48.588;10.836;2022-10-16T12:08:42;3.38;;;0.80;;
56141;SDS011;42018;48.588;10.836;2022-10-16T12:17:22;2.08;;;0.80;;
56141;SDS011;42018;48.588;10.836;2022-10-16T12:20:31;1.95;;;0.80;;
56141;SDS011;42018;48.588;10.836;2022-10-16T12:23:19;5.35;;;0.93;;
56141;SDS011;42018;48.588;10.836;2022-10-16T12:26:07;3.00;;;0.85;;
56141;SDS011;42018;48.588;10.836;2022-10-16T12:28:53;2.33;;;0.90;;
56141;SDS011;42018;48.588;10.836;2022-10-16T12:31:43;2.42;;;0.65;;
56141;SDS011;42018;48.588;10.836;2022-10-16T12:37:31;1.95;;;0.93;;
56141;SDS011;42018;48.588;10.836;2022-10-16T12:43:57;2.03;;;0.90;;
56141;SDS011;42018;48.588;10.836;2022-10-16T12:49:06;2.08;;;0.85;;
56141;SDS011;42018;48.588;10.836;2022-10-16T12:51:58;1.65;;;0.85;;
56141;SDS011;42018;48.588;10.836;2022-10-16T12:54:44;3.35;;;0.88;;
56141;SDS011;42018;48.588;10.836;2022-10-16T13:00:25;3.25;;;0.80;;
56141;SDS011;42018;48.588;10.836;2022-10-16T13:25:02;1.77;;;0.70;;
56141;SDS011;42018;48.588;10.836;2022-10-16T13:28:03;1.30;;;0.60;;
56141;SDS011;42018;48.588;10.836;2022-10-16T13:30:55;2.03;;;0.80;;
56141;SDS011;42018;48.588;10.836;2022-10-16T13:33:43;2.97;;;0.90;;
56141;SDS011;42018;48.588;10.836;2022-10-16T13:36:43;3.20;;;0.90;;
56141;SDS011;42018;48.588;10.836;2022-10-16T13:39:30;1.90;;;0.77;;
56141;SDS011;42018;48.588;10.836;2022-10-16T13:42:26;1.13;;;0.75;;
56141;SDS011;42018;48.588;10.836;2022-10-16T13:45:23;1.88;;;0.70;;
56141;SDS011;42018;48.588;10.836;2022-10-16T13:48:10;1.33;;;0.75;;
56141;SDS011;42018;48.588;10.836;2022-10-16T13:51:05;0.80;;;0.60;;
56141;SDS011;42018;48.588;10.836;2022-10-16T13:53:51;2.00;;;0.85;;
56141;SDS011;42018;48.588;10.836;2022-10-16T13:56:38;1.65;;;0.75;;
56141;SDS011;42018;48.588;10.836;2022-10-16T13:59:25;1.73;;;0.80;;
56141;SDS011;42018;48.588;10.836;2022-10-16T14:05:14;2.75;;;0.80;;
56141;SDS011;42018;48.588;10.836;2022-10-16T14:08:00;1.23;;;0.80;;
56141;SDS011;42018;48.588;10.836;2022-10-16T14:10:50;2.13;;;0.73;;
56141;SDS011;42018;48.588;10.836;2022-10-16T14:13:38;0.85;;;0.68;;
56141;SDS011;42018;48.588;10.836;2022-10-16T14:16:31;1.10;;;0.70;;
56141;SDS011;42018;48.588;10.836;2022-10-16T14:33:39;1.92;;;0.90;;
56141;SDS011;42018;48.588;10.836;2022-10-16T14:36:25;3.35;;;0.93;;
56141;SDS011;42018;48.588;10.836;2022-10-16T14:39:19;2.22;;;0.80;;
56141;SDS011;42018;48.588;10.836;2022-10-16T14:42:19;3.72;;;0.90;;
56141;SDS011;42018;48.588;10.836;2022-10-16T14:45:08;2.03;;;0.90;;
56141;SDS011;42018;48.588;10.836;2022-10-16T14:48:00;1.73;;;0.70;;
56141;SDS011;42018;48.588;10.836;2022-10-16T14:50:48;3.05;;;0.70;;
56141;SDS011;42018;48.588;10.836;2022-10-16T14:53:34;1.88;;;0.90;;
56141;SDS011;42018;48.588;10.836;2022-10-16T14:56:20;3.97;;;1.02;;
56141;SDS011;42018;48.588;10.836;2022-10-16T14:59:08;1.88;;;0.82;;
56141;SDS011;42018;48.588;10.836;2022-10-16T15:02:02;2.33;;;0.80;;
56141;SDS011;42018;48.588;10.836;2022-10-16T15:08:08;1.23;;;0.82;;
56141;SDS011;42018;48.588;10.836;2022-10-16T15:10:55;1.73;;;0.93;;
56141;SDS011;42018;48.588;10.836;2022-10-16T15:13:40;2.47;;;1.00;;
56141;SDS011;42018;48.588;10.836;2022-10-16T15:16:25;3.03;;;1.10;;
56141;SDS011;42018;48.588;10.836;2022-10-16T15:19:11;2.00;;;0.98;;
56141;SDS011;42018;48.588;10.836;2022-10-16T15:21:56;7.10;;;1.63;;
56141;SDS011;42018;48.588;10.836;2022-10-16T15:24:42;3.72;;;1.65;;
56141;SDS011;42018;48.588;10.836;2022-10-16T15:27:28;3.65;;;1.60;;
56141;SDS011;42018;48.588;10.836;2022-10-16T15:30:13;4.07;;;1.80;;
56141;SDS011;42018;48.588;10.836;2022-10-16T15:32:59;2.70;;;1.50;;
56141;SDS011;42018;48.588;10.836;2022-10-16T15:35:47;3.38;;;1.35;;
56141;SDS011;42018;48.588;10.836;2022-10-16T15:38:34;1.80;;;1.00;;
56141;SDS011;42018;48.588;10.836;2022-10-16T15:41:20;3.22;;;1.13;;
56141;SDS011;42018;48.588;10.836;2022-10-16T15:44:05;3.45;;;1.20;;
56141;SDS011;42018;48.588;10.836;2022-10-16T15:46:51;2.25;;;1.15;;
56141;SDS011;42018;48.588;10.836;2022-10-16T15:49:39;1.92;;;1.00;;
56141;SDS011;42018;48.588;10.836;2022-10-16T15:52:25;3.13;;;1.10;;
56141;SDS011;42018;48.588;10.836;2022-10-16T15:55:11;2.92;;;1.10;;
56141;SDS011;42018;48.588;10.836;2022-10-16T15:57:58;3.47;;;0.90;;
56141;SDS011;42018;48.588;10.836;2022-10-16T16:00:43;1.88;;;1.00;;
56141;SDS011;42018;48.588;10.836;2022-10-16T16:03:28;2.67;;;1.20;;
56141;SDS011;42018;48.588;10.836;2022-10-16T16:06:14;2.30;;;1.15;;
56141;SDS011;42018;48.588;10.836;2022-10-16T16:09:00;2.22;;;1.20;;
56141;SDS011;42018;48.588;10.836;2022-10-16T16:11:45;2.95;;;1.20;;
56141;SDS011;42018;48.588;10.836;2022-10-16T16:14:31;1.80;;;1.00;;
56141;SDS011;42018;48.588;10.836;2022-10-16T16:17:16;2.40;;;1.20;;
56141;SDS011;42018;48.588;10.836;2022-10-16T16:20:02;3.63;;;1.30;;
56141;SDS011;42018;48.588;10.836;2022-10-16T16:22:49;3.03;;;1.20;;
56141;SDS011;42018;48.588;10.836;2022-10-16T16:25:34;3.80;;;1.50;;
56141;SDS011;42018;48.588;10.836;2022-10-16T16:28:20;2.45;;;1.20;;
56141;SDS011;42018;48.588;10.836;2022-10-16T16:31:05;2.13;;;1.10;;
56141;SDS011;42018;48.588;10.836;2022-10-16T16:33:51;2.17;;;1.10;;
56141;SDS011;42018;48.588;10.836;2022-10-16T16:36:37;3.95;;;1.20;;
56141;SDS011;42018;48.588;10.836;2022-10-16T16:39:22;3.08;;;1.10;;
56141;SDS011;42018;48.588;10.836;2022-10-16T16:42:08;2.50;;;1.20;;
56141;SDS011;42018;48.588;10.836;2022-10-16T16:44:55;2.75;;;1.20;;
56141;SDS011;42018;48.588;10.836;2022-10-16T16:47:40;3.28;;;1.30;;
56141;SDS011;42018;48.588;10.836;2022-10-16T16:50:26;2.92;;;1.27;;
56141;SDS011;42018;48.588;10.836;2022-10-16T16:53:11;4.50;;;1.50;;
56141;SDS011;42018;48.588;10.836;2022-10-16T16:56:00;3.05;;;1.55;;
56141;SDS011;42018;48.588;10.836;2022-10-16T16:58:46;4.97;;;1.70;;
56141;SDS011;42018;48.588;10.836;2022-10-16T17:01:33;3.55;;;1.67;;
56141;SDS011;42018;48.588;10.836;2022-10-16T17:04:18;5.65;;;1.50;;
56141;SDS011;42018;48.588;10.836;2022-10-16T17:07:04;5.55;;;1.60;;
56141;SDS011;42018;48.588;10.836;2022-10-16T17:09:49;4.78;;;1.98;;
56141;SDS011;42018;48.588;10.836;2022-10-16T17:12:35;3.80;;;1.63;;
56141;SDS011;42018;48.588;10.836;2022-10-16T17:15:21;4.65;;;1.80;;
56141;SDS011;42018;48.588;10.836;2022-10-16T17:18:06;3.33;;;1.38;;
56141;SDS011;42018;48.588;10.836;2022-10-16T17:20:51;4.63;;;1.15;;
56141;SDS011;42018;48.588;10.836;2022-10-16T17:23:37;5.38;;;1.20;;
56141;SDS011;42018;48.588;10.836;2022-10-16T17:26:23;2.42;;;1.20;;
56141;SDS011;42018;48.588;10.836;2022-10-16T17:29:10;3.40;;;1.13;;
56141;SDS011;42018;48.588;10.836;2022-10-16T17:31:57;3.72;;;1.25;;
56141;SDS011;42018;48.588;10.836;2022-10-16T17:34:43;5.25;;;1.30;;
56141;SDS011;42018;48.588;10.836;2022-10-16T17:37:28;5.72;;;1.58;;
56141;SDS011;42018;48.588;10.836;2022-10-16T17:40:14;3.35;;;1.20;;
56141;SDS011;42018;48.588;10.836;2022-10-16T17:42:59;5.85;;;1.50;;
56141;SDS011;42018;48.588;10.836;2022-10-16T17:45:45;4.20;;;1.30;;
56141;SDS011;42018;48.588;10.836;2022-10-16T17:48:31;3.58;;;1.35;;
56141;SDS011;42018;48.588;10.836;2022-10-16T17:51:30;4.63;;;1.43;;
56141;SDS011;42018;48.588;10.836;2022-10-16T17:54:16;4.00;;;1.30;;
56141;SDS011;42018;48.588;10.836;2022-10-16T17:57:01;6.38;;;1.30;;
56141;SDS011;42018;48.588;10.836;2022-10-16T17:59:47;2.33;;;0.93;;
56141;SDS011;42018;48.588;10.836;2022-10-16T18:02:32;3.15;;;1.30;;
56141;SDS011;42018;48.588;10.836;2022-10-16T18:05:18;4.32;;;1.20;;
56141;SDS011;42018;48.588;10.836;2022-10-16T18:08:03;5.70;;;1.70;;
56141;SDS011;42018;48.588;10.836;2022-10-16T18:10:49;3.65;;;1.50;;
56141;SDS011;42018;48.588;10.836;2022-10-16T18:13:34;4.95;;;2.53;;
56141;SDS011;42018;48.588;10.836;2022-10-16T18:16:20;5.45;;;1.70;;
56141;SDS011;42018;48.588;10.836;2022-10-16T18:19:05;5.55;;;1.30;;
56141;SDS011;42018;48.588;10.836;2022-10-16T18:21:51;3.30;;;1.27;;
56141;SDS011;42018;48.588;10.836;2022-10-16T18:24:39;4.68;;;1.33;;
56141;SDS011;42018;48.588;10.836;2022-10-16T18:27:24;8.10;;;1.50;;
56141;SDS011;42018;48.588;10.836;2022-10-16T18:30:10;3.28;;;1.30;;
56141;SDS011;42018;48.588;10.836;2022-10-16T18:32:55;4.22;;;1.30;;
56141;SDS011;42018;48.588;10.836;2022-10-16T18:35:41;5.20;;;1.38;;
56141;SDS011;42018;48.588;10.836;2022-10-16T18:38:26;4.13;;;1.20;;
56141;SDS011;42018;48.588;10.836;2022-10-16T18:41:12;2.88;;;1.30;;
56141;SDS011;42018;48.588;10.836;2022-10-16T18:43:58;2.95;;;1.30;;
56141;SDS011;42018;48.588;10.836;2022-10-16T18:46:43;4.20;;;1.50;;
56141;SDS011;42018;48.588;10.836;2022-10-16T18:49:28;5.68;;;1.88;;
56141;SDS011;42018;48.588;10.836;2022-10-16T18:52:14;4.47;;;1.65;;
56141;SDS011;42018;48.588;10.836;2022-10-16T18:55:00;4.68;;;1.70;;
56141;SDS011;42018;48.588;10.836;2022-10-16T18:57:45;3.67;;;1.60;;
56141;SDS011;42018;48.588;10.836;2022-10-16T19:00:31;4.05;;;1.63;;
56141;SDS011;42018;48.588;10.836;2022-10-16T19:03:17;4.97;;;1.70;;
56141;SDS011;42018;48.588;10.836;2022-10-16T19:06:03;5.30;;;1.50;;